Meteo Giornale » Osservazioni meteo Repubblica Ceca » Praha-Ruzyne

ore: 08:00 - Osservazioni Meteo Praha-Ruzyne
Lat. 50° 6' N Lon. 14° 15' E Alt. 365 metri s.l.m.

sereno Europe/Prague

8 °C

Sereno

Temp. 24 Ore

4 °C

14 °C

Sud/Sud-Ovest

18.5 Km/h

Dew point 1 °C

Umidità 61 %

Visibilità  10 Km

Il sole sorge alle ore 05:46

Il sole tramonta alle ore 20:14

Data e Ora Cielo e Fenomeni T °C DP °C Um. % Pres. hPa Vis. km Vento km/h
Oggi h: 08:00 sereno Sereno 8 1 61 1004 10 S/SO 18.5
Oggi h: 07:30 sereno Sereno 7 1 65 1004 10 S/SO 9.3
Oggi h: 07:00 sereno Sereno 6 1 70 1004 10 SO 9.3
Oggi h: 06:30 sereno Sereno 4 -0 75 1004 10 O/SO 7.4
Oggi h: 06:00 sereno Sereno 5 -0 70 1004 10 S 11.1
Oggi h: 05:30 sereno Sereno 4 -0 75 1004 10 S 13
Oggi h: 05:00 sereno Sereno 4 -1 69 1005 10 S 11.1
Oggi h: 04:30 sereno Sereno 4 -1 69 1005 10 S 11.1
Oggi h: 04:00 sereno Sereno 5 -0 70 1006 10 S 13
Oggi h: 03:30 sereno Sereno 6 -0 65 1006 10 S/SE 16.7
Oggi h: 03:00 sereno Sereno 7 -1 56 1006 10 S/SE 14.8
Oggi h: 02:30 sereno Sereno 5 -0 70 1007 10 S/SE 14.8
Oggi h: 02:00 sereno Sereno 5 -0 70 1007 10 S/SE 14.8
Oggi h: 01:30 sereno Sereno 6 -1 60 1008 10 S 11.1
Oggi h: 01:00 sereno Sereno 6 -1 60 1008 10 S 13
Oggi h: 00:30 sereno Sereno 6 -0 65 1008 10 S 11.1
Oggi h: 00:00 sereno Sereno 7 -1 56 1009 10 S 9.3
Ieri h: 23:30 sereno Sereno 6 -0 65 1009 10 S 13
Ieri h: 23:00 sereno Sereno 6 -0 65 1010 10 S/SO 14.8
Ieri h: 22:30 sereno Sereno 6 0 65 1010 10 S/SO 13
Ieri h: 22:00 sereno Sereno 8 -0 56 1010 10 S/SO 11.1
Ieri h: 21:30 sereno Sereno 7 0 60 1010 10 S/SO 13
Ieri h: 21:00 sereno Sereno 8 -0 56 1011 10 S/SO 14.8
Ieri h: 20:30 sereno Sereno 8 0 56 1011 10 SO 11.1
Ieri h: 20:00 sereno Sereno 9 1 57 1011 10 SO 11.1
Ieri h: 19:00 sereno Sereno 13 0 40 1011 10 SO 18.5
Ieri h: 17:30 sereno Sereno 14 -1 35 1012 10 S/SO 18.5
Ieri h: 17:00 sereno Sereno 13 -0 40 1012 10 S/SO 20.3
Ieri h: 16:30 sereno Sereno 13 -1 37 1013 10 SO 20.3
Ieri h: 16:00 sereno Sereno 13 -0 40 1013 10 S/SO 14.8
Ieri h: 15:30 sereno Sereno 13 -1 37 1014 10 S/SO 14.8
Ieri h: 15:00 sereno Sereno 13 -1 37 1014 10 S 13
Ieri h: 14:30 sereno Sereno 12 -1 40 1015 10 S/SO 18.5
Ieri h: 14:00 sereno Sereno 12 -1 40 1015 10 S/SO 14.8
Ieri h: 13:30 sereno Sereno 11 -2 40 1015 10 S 14.8
Ieri h: 13:00 sereno Sereno 11 -1 43 1016 10 S/SO 16.7
Ieri h: 12:30 poco_nuvoloso Poco Nuvoloso 10 -2 42 1017 10 SO 14.8
Ieri h: 12:00 nuvoloso Nuvoloso 10 -1 46 1017 10 S 13
Ieri h: 11:30 nuvoloso Nuvoloso 9 -2 45 1018 10 O/SO 14.8
Ieri h: 11:00 poco_nuvoloso Poco Nuvoloso 8 -1 52 1018 10 SO 16.7
Ieri h: 10:30 poco_nuvoloso Poco Nuvoloso 7 -1 56 1018 10 SO 16.7
Ieri h: 10:00 poco_nuvoloso Poco Nuvoloso 7 -0 60 1019 10 S/SO 13
Ieri h: 09:30 poco_nuvoloso Poco Nuvoloso 7 -0 60 1019 10 S/SO 9.3
Ieri h: 09:00 sereno Sereno 6 -2 56 1019 10 N 3.7